createdAt,value
2022-08-30T00:00:49.428Z,99437.04
2022-08-30T00:03:16.823Z,99432.19
2022-08-30T00:05:44.248Z,99430.76
2022-08-30T00:08:11.027Z,99431.02
2022-08-30T00:10:38.332Z,99431.09
2022-08-30T00:13:06.605Z,99433.44
2022-08-30T00:15:33.523Z,99437.28
2022-08-30T00:18:00.435Z,99436.65
2022-08-30T00:20:29.500Z,99435.38
2022-08-30T00:22:56.268Z,99434.30
2022-08-30T00:25:23.179Z,99437.84
2022-08-30T00:27:50.248Z,99436.61
2022-08-30T00:30:17.264Z,99433.21
2022-08-30T00:32:44.076Z,99434.15
2022-08-30T00:35:12.041Z,99435.04
2022-08-30T00:37:38.963Z,99435.95
2022-08-30T00:40:06.751Z,99430.88
2022-08-30T00:42:33.830Z,99435.73
2022-08-30T00:45:00.613Z,99436.84
2022-08-30T00:47:27.358Z,99440.38
2022-08-30T00:49:55.150Z,99439.31
2022-08-30T00:52:22.246Z,99443.39
2022-08-30T00:54:49.181Z,99444.10
2022-08-30T00:57:15.948Z,99445.04
2022-08-30T00:59:44.648Z,99442.73
2022-08-30T01:02:11.626Z,99447.23
2022-08-30T01:04:40.749Z,99449.21
2022-08-30T01:07:08.339Z,99449.78
2022-08-30T01:09:36.088Z,99446.80
2022-08-30T01:12:04.724Z,99446.51
2022-08-30T01:14:33.224Z,99446.48
2022-08-30T01:17:01.576Z,99446.89
2022-08-30T01:19:34.666Z,99447.64
2022-08-30T01:22:18.826Z,99449.55
2022-08-30T01:24:48.512Z,99450.16
2022-08-30T01:27:15.942Z,99449.83
2022-08-30T01:29:45.075Z,99447.52
2022-08-30T01:32:29.791Z,99444.98
2022-08-30T01:34:57.161Z,99441.80
2022-08-30T01:37:27.209Z,99438.38
2022-08-30T01:39:54.020Z,99441.60
2022-08-30T01:42:20.892Z,99437.27
2022-08-30T01:44:48.733Z,99440.88
2022-08-30T01:47:15.838Z,99436.05
2022-08-30T01:49:42.702Z,99440.20
2022-08-30T01:52:09.429Z,99439.61
2022-08-30T01:54:38.197Z,99441.59
2022-08-30T01:57:10.076Z,99445.13
2022-08-30T01:59:37.168Z,99446.75
2022-08-30T02:02:04.421Z,99445.74
2022-08-30T02:04:31.323Z,99452.05
2022-08-30T02:06:58.091Z,99447.75
2022-08-30T02:09:24.839Z,99447.23
2022-08-30T02:11:51.959Z,99448.61
2022-08-30T02:14:18.726Z,99458.35
2022-08-30T02:16:48.508Z,99453.70
2022-08-30T02:19:15.510Z,99455.35
2022-08-30T02:21:42.259Z,99457.89
2022-08-30T02:24:08.955Z,99457.55
2022-08-30T02:26:36.675Z,99462.48
2022-08-30T02:29:05.369Z,99463.23
2022-08-30T02:31:32.423Z,99464.73
2022-08-30T02:33:59.213Z,99465.96
2022-08-30T02:36:25.950Z,99467.41
2022-08-30T02:38:52.742Z,99467.50
2022-08-30T02:41:19.744Z,99472.45
2022-08-30T02:43:46.673Z,99473.02
2022-08-30T02:46:14.094Z,99480.55
2022-08-30T02:48:40.913Z,99475.43
2022-08-30T02:51:11.167Z,99478.77
2022-08-30T02:53:39.302Z,99485.95
2022-08-30T02:56:06.107Z,99483.42
2022-08-30T02:58:32.860Z,99485.35
2022-08-30T03:00:59.679Z,99485.06
2022-08-30T03:03:26.620Z,99487.88
2022-08-30T03:05:53.395Z,99490.55
2022-08-30T03:08:20.147Z,99489.86
2022-08-30T03:10:46.897Z,99489.45
2022-08-30T03:13:13.631Z,99496.61
2022-08-30T03:15:40.584Z,99496.00
2022-08-30T03:18:07.913Z,99493.96
2022-08-30T03:20:37.520Z,99497.05
2022-08-30T03:23:04.835Z,99493.02
2022-08-30T03:25:31.670Z,99496.61
2022-08-30T03:27:58.517Z,99502.76
2022-08-30T03:30:25.505Z,99498.26
2022-08-30T03:32:52.440Z,99501.71
2022-08-30T03:35:19.374Z,99500.14
2022-08-30T03:37:46.263Z,99505.37
2022-08-30T03:40:14.540Z,99515.76
2022-08-30T03:42:43.339Z,99517.83
2022-08-30T03:45:11.066Z,99521.15
2022-08-30T03:47:37.824Z,99524.86
2022-08-30T03:50:08.008Z,99528.81
2022-08-30T03:52:34.724Z,99532.91
2022-08-30T03:55:01.558Z,99536.34
2022-08-30T03:57:28.758Z,99539.80
2022-08-30T03:59:55.499Z,99540.11
2022-08-30T04:02:22.455Z,99543.15
2022-08-30T04:04:49.299Z,99546.09
2022-08-30T04:07:16.074Z,99547.41
2022-08-30T04:09:42.793Z,99551.55
2022-08-30T04:12:09.584Z,99551.45
2022-08-30T04:14:36.287Z,99549.31
2022-08-30T04:17:03.116Z,99550.64
2022-08-30T04:19:29.850Z,99547.18
2022-08-30T04:21:57.393Z,99544.45
2022-08-30T04:24:24.332Z,99541.98
2022-08-30T04:26:51.154Z,99547.83
2022-08-30T04:29:18.007Z,99547.96
2022-08-30T04:31:45.383Z,99547.31
2022-08-30T04:34:12.953Z,99548.77
2022-08-30T04:36:39.755Z,99553.14
2022-08-30T04:39:07.402Z,99549.62
2022-08-30T04:41:34.247Z,99544.67
2022-08-30T04:44:03.125Z,99544.91
2022-08-30T04:46:30.388Z,99550.94
2022-08-30T04:48:57.139Z,99548.16
2022-08-30T04:51:23.855Z,99550.10
2022-08-30T04:53:50.603Z,99554.34
2022-08-30T04:56:19.622Z,99551.15
2022-08-30T04:58:47.438Z,99553.47
2022-08-30T05:01:15.264Z,99553.14
2022-08-30T05:03:46.246Z,99556.40
2022-08-30T05:06:13.193Z,99557.12
2022-08-30T05:08:39.937Z,99558.94
2022-08-30T05:11:12.871Z,99555.39
2022-08-30T05:13:39.675Z,99556.89
2022-08-30T05:16:07.160Z,99558.95
2022-08-30T05:18:34.864Z,99556.91
2022-08-30T05:21:09.712Z,99553.13
2022-08-30T05:23:37.047Z,99554.71
2022-08-30T05:26:08.660Z,99552.38
2022-08-30T05:28:35.903Z,99552.92
2022-08-30T05:31:02.916Z,99556.02
2022-08-30T05:33:30.082Z,99557.50
2022-08-30T05:35:56.844Z,99552.00
2022-08-30T05:38:23.593Z,99550.78
2022-08-30T05:40:51.252Z,99552.38
2022-08-30T05:43:18.540Z,99550.71
2022-08-30T05:45:45.270Z,99552.40
2022-08-30T05:48:13.050Z,99552.73
2022-08-30T05:50:40.136Z,99551.02
2022-08-30T05:53:06.993Z,99550.47
2022-08-30T05:55:33.798Z,99545.03
2022-08-30T05:58:00.837Z,99548.84
2022-08-30T06:00:30.303Z,99547.05
2022-08-30T06:02:57.328Z,99541.88
2022-08-30T06:05:24.335Z,99541.37
2022-08-30T06:07:51.180Z,99542.92
2022-08-30T06:10:17.961Z,99540.02
2022-08-30T06:12:44.780Z,99542.09
2022-08-30T06:15:12.026Z,99544.58
2022-08-30T06:17:39.802Z,99546.89
2022-08-30T06:20:07.314Z,99546.42
2022-08-30T06:22:34.440Z,99547.27
2022-08-30T06:25:01.276Z,99549.77
2022-08-30T06:27:28.143Z,99550.63
2022-08-30T06:29:54.918Z,99553.15
2022-08-30T06:32:21.768Z,99552.63
2022-08-30T06:34:48.559Z,99552.04
2022-08-30T06:37:29.311Z,99556.77
2022-08-30T06:39:57.718Z,99556.61
2022-08-30T06:42:30.513Z,99555.76
2022-08-30T06:44:58.498Z,99554.17
2022-08-30T06:47:25.259Z,99550.38
2022-08-30T06:49:51.992Z,99550.70
2022-08-30T06:52:19.227Z,99552.57
2022-08-30T06:54:46.062Z,99555.81
2022-08-30T06:57:13.041Z,99555.91
2022-08-30T06:59:40.118Z,99553.98
2022-08-30T07:02:07.012Z,99557.93
2022-08-30T07:04:33.806Z,99559.75
2022-08-30T07:07:00.663Z,99563.76
2022-08-30T07:09:27.443Z,99561.37
2022-08-30T07:11:54.249Z,99566.20
2022-08-30T07:14:21.379Z,99562.55
2022-08-30T07:16:51.118Z,99567.52
2022-08-30T07:19:20.760Z,99565.27
2022-08-30T07:21:49.291Z,99565.92
2022-08-30T07:24:16.555Z,99564.52
2022-08-30T07:26:47.264Z,99565.52
2022-08-30T07:29:14.129Z,99566.46
2022-08-30T07:31:40.943Z,99567.10
2022-08-30T07:34:07.795Z,99569.21
2022-08-30T07:36:35.348Z,99570.08
2022-08-30T07:39:09.751Z,99573.88
2022-08-30T07:41:38.756Z,99573.31
2022-08-30T07:44:07.391Z,99568.34
2022-08-30T07:46:34.568Z,99564.73
2022-08-30T07:49:01.880Z,99561.98
2022-08-30T07:51:31.000Z,99563.13
2022-08-30T07:53:57.716Z,99564.89
2022-08-30T07:56:24.635Z,99566.33
2022-08-30T07:58:51.437Z,99566.76
2022-08-30T08:01:18.383Z,99565.20
2022-08-30T08:03:45.475Z,99569.69
2022-08-30T08:06:13.446Z,99570.29
2022-08-30T08:08:40.332Z,99571.10
2022-08-30T08:11:16.256Z,99564.41
2022-08-30T08:13:53.778Z,99557.81
2022-08-30T08:16:22.502Z,99561.08
2022-08-30T08:18:49.283Z,99564.61
2022-08-30T08:21:16.100Z,99562.73
2022-08-30T08:23:42.835Z,99564.79
2022-08-30T08:26:09.634Z,99560.30
2022-08-30T08:28:36.391Z,99559.08
2022-08-30T08:31:03.528Z,99565.54
2022-08-30T08:33:30.522Z,99566.48
2022-08-30T08:35:57.255Z,99567.83
2022-08-30T08:38:24.129Z,99566.21
2022-08-30T08:41:10.484Z,99566.10
2022-08-30T08:43:38.686Z,99563.55
2022-08-30T08:46:10.905Z,99565.30
2022-08-30T08:49:04.982Z,99568.67
2022-08-30T08:51:52.246Z,99567.02
2022-08-30T08:54:24.914Z,99566.81
2022-08-30T08:56:51.712Z,99571.77
2022-08-30T08:59:18.476Z,99565.64
2022-08-30T09:01:45.290Z,99567.71
2022-08-30T09:04:14.937Z,99566.98
2022-08-30T09:06:58.951Z,99566.39
2022-08-30T09:09:27.816Z,99560.32
2022-08-30T09:11:54.579Z,99562.94
2022-08-30T09:14:30.485Z,99565.52
2022-08-30T09:17:05.300Z,99563.92
2022-08-30T09:19:35.089Z,99564.22
2022-08-30T09:22:05.018Z,99568.23
2022-08-30T09:24:40.177Z,99563.14
2022-08-30T09:27:17.051Z,99563.92
2022-08-30T09:29:54.691Z,99564.77
2022-08-30T09:32:37.253Z,99562.12
2022-08-30T09:35:05.694Z,99559.40
2022-08-30T09:37:35.812Z,99563.31
2022-08-30T09:40:07.707Z,99566.95
2022-08-30T09:42:34.485Z,99564.70
2022-08-30T09:45:10.607Z,99569.70
2022-08-30T09:47:42.428Z,99560.59
2022-08-30T09:50:21.114Z,99561.41
2022-08-30T09:53:10.599Z,99562.73
2022-08-30T09:55:54.182Z,99564.20
2022-08-30T09:58:30.067Z,99560.80
2022-08-30T10:01:12.317Z,99561.46
2022-08-30T10:03:44.101Z,99560.73
2022-08-30T10:06:25.437Z,99565.40
2022-08-30T10:09:03.819Z,99563.36
2022-08-30T10:11:39.730Z,99563.40
2022-08-30T10:14:12.465Z,99562.17
2022-08-30T10:16:55.304Z,99561.34
2022-08-30T10:19:47.521Z,99557.73
2022-08-30T10:22:18.140Z,99563.56
2022-08-30T10:24:48.159Z,99561.57
2022-08-30T10:27:20.867Z,99562.96
2022-08-30T10:29:51.402Z,99564.29
2022-08-30T10:32:28.682Z,99559.95
2022-08-30T10:38:06.430Z,99551.42
2022-08-30T10:40:53.843Z,99550.32
2022-08-30T10:43:32.035Z,99553.95
2022-08-30T10:46:00.805Z,99551.23
2022-08-30T10:48:31.324Z,99548.30
2022-08-30T10:50:59.221Z,99546.96
2022-08-30T10:53:34.134Z,99542.55
2022-08-30T10:56:13.080Z,99547.32
2022-08-30T10:58:40.996Z,99547.39
2022-08-30T11:01:28.526Z,99544.00
2022-08-30T11:04:29.358Z,99539.15
2022-08-30T11:07:01.815Z,99531.95
2022-08-30T11:09:42.674Z,99538.00
2022-08-30T11:12:35.014Z,99527.64
2022-08-30T11:15:13.628Z,99527.62
2022-08-30T11:18:15.027Z,99527.98
2022-08-30T11:20:50.888Z,99530.21
2022-08-30T11:23:27.602Z,99527.38
2022-08-30T11:26:06.090Z,99525.08
2022-08-30T11:28:36.778Z,99528.27
2022-08-30T11:31:18.499Z,99522.60
2022-08-30T11:33:51.951Z,99521.06
2022-08-30T11:36:46.282Z,99525.09
2022-08-30T11:39:44.372Z,99519.84
2022-08-30T11:42:32.490Z,99522.14
2022-08-30T11:45:25.445Z,99517.73
2022-08-30T11:48:00.790Z,99520.27
2022-08-30T11:50:53.593Z,99517.80
2022-08-30T11:53:43.953Z,99511.42
2022-08-30T11:56:21.414Z,99511.27
2022-08-30T11:59:01.730Z,99513.30
2022-08-30T12:01:50.971Z,99513.85
2022-08-30T12:04:19.514Z,99512.71
2022-08-30T12:07:04.122Z,99509.35
2022-08-30T12:09:32.927Z,99503.30
2022-08-30T12:12:09.631Z,99501.16
2022-08-30T12:15:58.476Z,99499.30
2022-08-30T12:18:52.026Z,99497.02
2022-08-30T12:21:22.049Z,99495.50
2022-08-30T12:23:53.164Z,99498.42
2022-08-30T12:26:26.035Z,99497.52
2022-08-30T12:29:07.478Z,99492.95
2022-08-30T12:31:34.244Z,99489.32
2022-08-30T12:34:01.608Z,99490.02
2022-08-30T12:36:52.606Z,99489.15
2022-08-30T12:39:24.031Z,99483.80
2022-08-30T12:41:50.833Z,99487.24
2022-08-30T12:44:25.986Z,99480.50
2022-08-30T12:46:59.754Z,99481.34
2022-08-30T12:49:30.020Z,99483.52
2022-08-30T12:51:57.514Z,99482.19
2022-08-30T12:54:28.425Z,99482.30
2022-08-30T12:59:56.741Z,99476.09
2022-08-30T13:02:27.903Z,99474.70
2022-08-30T13:04:55.562Z,99472.27
2022-08-30T13:07:33.696Z,99469.36
2022-08-30T13:10:06.402Z,99469.77
2022-08-30T13:12:36.058Z,99473.23
2022-08-30T13:15:10.596Z,99468.66
2022-08-30T13:17:37.350Z,99458.84
2022-08-30T13:20:22.012Z,99460.84
2022-08-30T13:23:03.112Z,99466.14
2022-08-30T13:25:32.904Z,99458.59
2022-08-30T13:28:00.617Z,99455.48
2022-08-30T13:30:27.609Z,99447.16
2022-08-30T13:32:54.354Z,99452.98
2022-08-30T13:35:21.526Z,99448.75
2022-08-30T13:37:50.260Z,99449.32
2022-08-30T13:40:19.151Z,99448.61
2022-08-30T13:42:45.975Z,99443.05
2022-08-30T13:48:00.998Z,99445.10
2022-08-30T13:50:28.002Z,99444.64
2022-08-30T13:52:54.739Z,99447.50
2022-08-30T13:55:21.502Z,99442.20
2022-08-30T13:57:56.390Z,99437.23
2022-08-30T14:00:25.041Z,99442.27
2022-08-30T14:02:57.502Z,99441.14
2022-08-30T14:06:05.302Z,99438.05
2022-08-30T14:08:45.306Z,99437.67
2022-08-30T14:11:13.287Z,99431.52
2022-08-30T14:14:14.776Z,99427.01
2022-08-30T14:16:27.736Z,99428.89
2022-08-30T14:18:55.349Z,99426.39
2022-08-30T14:21:24.717Z,99426.97
2022-08-30T14:23:56.084Z,99427.98
2022-08-30T14:26:26.839Z,99422.68
2022-08-30T14:28:59.333Z,99420.48
2022-08-30T14:31:26.141Z,99424.55
2022-08-30T14:33:53.089Z,99421.11
2022-08-30T14:36:19.989Z,99418.63
2022-08-30T14:38:48.458Z,99416.07
2022-08-30T14:41:15.455Z,99416.09
2022-08-30T14:43:42.257Z,99411.15
2022-08-30T14:46:10.309Z,99407.55
2022-08-30T14:48:37.626Z,99403.81
2022-08-30T14:51:12.318Z,99402.73
2022-08-30T14:53:39.147Z,99403.10
2022-08-30T14:56:10.852Z,99400.70
2022-08-30T14:58:37.757Z,99396.67
2022-08-30T15:01:12.474Z,99395.47
2022-08-30T15:03:40.007Z,99394.90
2022-08-30T15:06:07.347Z,99392.22
2022-08-30T15:08:34.985Z,99393.98
2022-08-30T15:11:02.387Z,99393.68
2022-08-30T15:13:29.139Z,99395.85
2022-08-30T15:15:56.839Z,99391.41
2022-08-30T15:18:24.575Z,99388.20
2022-08-30T15:20:51.383Z,99396.78
2022-08-30T15:23:18.226Z,99392.38
2022-08-30T15:25:51.567Z,99389.45
2022-08-30T15:28:19.316Z,99384.91
2022-08-30T15:30:46.210Z,99383.81
2022-08-30T15:33:12.930Z,99385.91
2022-08-30T15:35:41.628Z,99383.27
2022-08-30T15:38:08.564Z,99380.30
2022-08-30T15:40:39.666Z,99379.27
2022-08-30T15:43:06.591Z,99382.98
2022-08-30T15:45:33.814Z,99377.10
2022-08-30T15:48:00.800Z,99377.90
2022-08-30T15:50:27.914Z,99377.23
2022-08-30T15:52:54.975Z,99368.70
2022-08-30T15:55:21.710Z,99372.58
2022-08-30T15:57:48.509Z,99371.92
2022-08-30T16:00:15.762Z,99368.95
2022-08-30T16:02:43.038Z,99370.17
2022-08-30T16:05:10.734Z,99368.52
2022-08-30T16:07:40.529Z,99377.96
2022-08-30T16:10:08.891Z,99379.69
2022-08-30T16:12:35.635Z,99373.50
2022-08-30T16:15:02.405Z,99377.81
2022-08-30T16:17:29.217Z,99381.59
2022-08-30T16:19:58.896Z,99389.80
2022-08-30T16:22:26.592Z,99388.29
2022-08-30T16:24:53.566Z,99392.05
2022-08-30T16:27:21.167Z,99394.39
2022-08-30T16:29:48.535Z,99399.17
2022-08-30T16:32:17.440Z,99399.30
2022-08-30T16:34:44.218Z,99402.45
2022-08-30T16:37:11.006Z,99405.13
2022-08-30T16:39:37.759Z,99403.11
2022-08-30T16:42:06.898Z,99406.48
2022-08-30T16:44:33.872Z,99408.94
2022-08-30T16:47:01.720Z,99413.67
2022-08-30T16:49:28.645Z,99416.15
2022-08-30T16:51:56.112Z,99414.05
2022-08-30T16:54:23.398Z,99418.95
2022-08-30T16:56:50.297Z,99420.08
2022-08-30T16:59:17.806Z,99425.36
2022-08-30T17:01:45.744Z,99428.65
2022-08-30T17:04:15.891Z,99436.34
2022-08-30T17:06:46.137Z,99439.65
2022-08-30T17:09:15.145Z,99450.69
2022-08-30T17:11:42.201Z,99453.50
2022-08-30T17:14:09.628Z,99451.23
2022-08-30T17:16:37.171Z,99455.36
2022-08-30T17:19:04.382Z,99457.89
2022-08-30T17:21:32.251Z,99463.02
2022-08-30T17:24:01.858Z,99465.80
2022-08-30T17:26:33.388Z,99470.77
2022-08-30T17:29:00.124Z,99476.87
2022-08-30T17:31:29.285Z,99473.89
2022-08-30T17:34:01.166Z,99478.14
2022-08-30T17:36:31.142Z,99484.86
2022-08-30T17:38:57.878Z,99488.04
2022-08-30T17:41:24.612Z,99493.09
2022-08-30T17:43:51.631Z,99495.94
2022-08-30T17:46:19.592Z,99500.80
2022-08-30T17:48:46.735Z,99500.77
2022-08-30T17:51:13.543Z,99506.16
2022-08-30T17:53:40.436Z,99506.06
2022-08-30T17:56:08.636Z,99508.77
2022-08-30T17:58:35.408Z,99510.86
2022-08-30T18:01:11.768Z,99512.87
2022-08-30T18:03:39.011Z,99516.19
2022-08-30T18:06:07.192Z,99516.52
2022-08-30T18:08:34.456Z,99521.11
2022-08-30T18:11:01.732Z,99521.23
2022-08-30T18:13:28.530Z,99523.81
2022-08-30T18:15:56.622Z,99523.42
2022-08-30T18:18:23.764Z,99520.60
2022-08-30T18:20:51.053Z,99521.20
2022-08-30T18:23:18.019Z,99523.13
2022-08-30T18:25:57.873Z,99524.98
2022-08-30T18:28:24.788Z,99529.75
2022-08-30T18:30:52.872Z,99527.09
2022-08-30T18:33:20.381Z,99527.08
2022-08-30T18:35:48.728Z,99520.67
2022-08-30T18:38:15.584Z,99520.92
2022-08-30T18:40:42.535Z,99519.58
2022-08-30T18:43:10.657Z,99517.62
2022-08-30T18:45:37.769Z,99522.43
2022-08-30T18:48:05.575Z,99522.67
2022-08-30T18:50:32.468Z,99527.29
2022-08-30T18:52:59.711Z,99525.53
2022-08-30T18:55:26.841Z,99526.52
2022-08-30T18:57:54.125Z,99528.38
2022-08-30T19:00:21.746Z,99526.54
2022-08-30T19:02:48.783Z,99523.64
2022-08-30T19:05:16.323Z,99524.61
2022-08-30T19:07:43.968Z,99526.45
2022-08-30T19:10:12.384Z,99526.57
2022-08-30T19:12:39.950Z,99522.73
2022-08-30T19:15:10.854Z,99523.02
2022-08-30T19:17:43.135Z,99526.21
2022-08-30T19:20:11.459Z,99528.67
2022-08-30T19:22:56.550Z,99532.85
2022-08-30T19:25:25.354Z,99535.33
2022-08-30T19:27:52.336Z,99534.42
2022-08-30T19:30:29.677Z,99534.64
2022-08-30T19:32:57.066Z,99532.54
2022-08-30T19:35:24.250Z,99533.73
2022-08-30T19:37:51.248Z,99532.21
2022-08-30T19:40:18.503Z,99530.41
2022-08-30T19:42:45.917Z,99533.23
2022-08-30T19:45:32.242Z,99534.46
2022-08-30T19:48:00.831Z,99531.13
2022-08-30T19:50:27.628Z,99531.61
2022-08-30T19:52:55.324Z,99533.25
2022-08-30T19:55:28.680Z,99526.94
2022-08-30T19:57:57.321Z,99533.21
2022-08-30T20:00:24.114Z,99534.14
2022-08-30T20:02:51.393Z,99532.73
2022-08-30T20:05:18.938Z,99532.00
2022-08-30T20:07:45.909Z,99534.63
2022-08-30T20:10:13.831Z,99532.64
2022-08-30T20:12:45.462Z,99532.52
2022-08-30T20:15:14.594Z,99530.92
2022-08-30T20:18:02.714Z,99533.27
2022-08-30T20:20:29.196Z,99534.09
2022-08-30T20:22:55.958Z,99530.35
2022-08-30T20:25:22.866Z,99533.43
2022-08-30T20:27:49.730Z,99530.47
2022-08-30T20:30:17.072Z,99531.73
2022-08-30T20:32:46.683Z,99533.41
2022-08-30T20:35:14.922Z,99528.69
2022-08-30T20:37:43.216Z,99531.75
2022-08-30T20:40:15.020Z,99535.30
2022-08-30T20:42:45.481Z,99538.52
2022-08-30T20:45:14.051Z,99538.79
2022-08-30T20:47:41.582Z,99540.92
2022-08-30T20:50:13.794Z,99542.16
2022-08-30T20:52:40.873Z,99543.55
2022-08-30T20:55:08.291Z,99539.49
2022-08-30T20:57:35.025Z,99542.27
2022-08-30T21:00:01.824Z,99541.43
2022-08-30T21:02:28.681Z,99541.21
2022-08-30T21:04:55.817Z,99536.96
2022-08-30T21:07:22.634Z,99535.14
2022-08-30T21:09:50.235Z,99540.77
2022-08-30T21:12:16.958Z,99545.54
2022-08-30T21:14:43.700Z,99546.79
2022-08-30T21:17:10.439Z,99540.44
2022-08-30T21:19:40.878Z,99540.96
2022-08-30T21:22:10.499Z,99541.96
2022-08-30T21:24:37.295Z,99540.45
2022-08-30T21:27:04.143Z,99536.41
2022-08-30T21:29:33.074Z,99534.34
2022-08-30T21:31:59.811Z,99531.02
2022-08-30T21:34:26.596Z,99529.16
2022-08-30T21:36:53.512Z,99527.10
2022-08-30T21:39:20.526Z,99530.05
2022-08-30T21:41:48.395Z,99531.56
2022-08-30T21:44:17.543Z,99531.23
2022-08-30T21:46:44.514Z,99526.76
2022-08-30T21:49:12.288Z,99527.47
2022-08-30T21:51:40.981Z,99530.84
2022-08-30T21:54:08.769Z,99527.99
2022-08-30T21:56:36.347Z,99524.95
2022-08-30T21:59:04.188Z,99525.55
2022-08-30T22:01:31.539Z,99529.95
2022-08-30T22:04:00.188Z,99530.64
2022-08-30T22:06:30.767Z,99527.06
2022-08-30T22:08:58.466Z,99526.05
2022-08-30T22:11:25.843Z,99525.59
2022-08-30T22:13:52.970Z,99523.02
2022-08-30T22:16:19.932Z,99521.23
2022-08-30T22:18:46.694Z,99517.84
2022-08-30T22:21:16.402Z,99514.23
2022-08-30T22:23:43.700Z,99517.89
2022-08-30T22:26:10.574Z,99515.32
2022-08-30T22:28:37.415Z,99514.05
2022-08-30T22:31:06.428Z,99514.45
2022-08-30T22:33:33.205Z,99516.87
2022-08-30T22:36:14.644Z,99520.75
2022-08-30T22:38:41.383Z,99520.51
2022-08-30T22:41:09.723Z,99520.08
2022-08-30T22:43:36.639Z,99520.25
2022-08-30T22:46:03.562Z,99521.35
2022-08-30T22:48:30.338Z,99517.47
2022-08-30T22:50:57.038Z,99517.20
2022-08-30T22:53:23.799Z,99514.15
2022-08-30T22:55:50.526Z,99511.59
2022-08-30T22:58:19.016Z,99514.55
2022-08-30T23:00:54.458Z,99508.58
2022-08-30T23:03:22.007Z,99510.67
2022-08-30T23:05:48.816Z,99511.11
2022-08-30T23:08:15.515Z,99516.36
2022-08-30T23:10:44.304Z,99513.12
2022-08-30T23:13:11.240Z,99513.44
2022-08-30T23:15:37.974Z,99510.67
2022-08-30T23:18:04.704Z,99510.60
2022-08-30T23:20:31.451Z,99511.68
2022-08-30T23:22:58.139Z,99514.24
2022-08-30T23:25:47.531Z,99508.83
2022-08-30T23:28:37.886Z,99507.95
2022-08-30T23:31:34.043Z,99507.14
2022-08-30T23:34:19.447Z,99508.31
2022-08-30T23:37:04.738Z,99506.81
2022-08-30T23:39:50.054Z,99506.34
2022-08-30T23:42:35.490Z,99506.33
2022-08-30T23:45:20.814Z,99512.16
2022-08-30T23:48:06.239Z,99510.52
2022-08-30T23:50:51.263Z,99509.48
2022-08-30T23:53:36.649Z,99507.67
2022-08-30T23:56:22.023Z,99507.66
2022-08-30T23:59:07.432Z,99506.87
